Time;durP1;ratioP1;P1;durP2;ratioP2;P2;SDS_P1;SDS_P2;PMS_P1;PMS_P2;Temp;Humidity;BMP_temperature;BMP_pressure;BME280_temperature;BME280_humidity;BME280_pressure;Samples;Min_cycle;Max_cycle;Signal;HPM_P1;HPM_P2
2022/05/18 00:00:18;;;;;;;4.97;2.90;;;;;;;10.05;58.26;94698.23;1681784;84;21556;-48
2022/05/18 00:02:46;;;;;;;8.13;3.22;;;;;;;10.02;57.75;94708.12;1681874;85;21010;-48
2022/05/18 00:05:13;;;;;;;3.22;2.87;;;;;;;9.96;58.10;94706.38;1681859;85;21130;-48
2022/05/18 00:07:40;;;;;;;3.42;3.12;;;;;;;9.92;57.39;94705.12;1681813;85;21005;-48
2022/05/18 00:10:10;;;;;;;6.95;3.08;;;;;;;9.89;54.58;94702.48;1681840;85;21542;-49
2022/05/18 00:12:46;;;;;;;5.97;3.25;;;;;;;9.91;53.94;94705.55;1682034;85;21855;-49
2022/05/18 00:15:14;;;;;;;4.80;3.22;;;;;;;9.89;55.35;94703.85;1681775;85;21084;-48
2022/05/18 00:17:41;;;;;;;7.03;3.22;;;;;;;9.82;56.59;94704.84;1680788;85;20994;-49
2022/05/18 00:20:11;;;;;;;3.75;3.00;;;;;;;9.75;58.31;94704.31;1680460;85;21483;-49
2022/05/18 00:22:47;;;;;;;9.15;3.02;;;;;;;9.59;58.97;94714.84;1680835;85;21518;-48
2022/05/18 00:25:13;;;;;;;3.10;2.87;;;;;;;9.46;58.08;94720.19;1680364;85;21144;-47
2022/05/18 00:27:40;;;;;;;3.72;2.87;;;;;;;9.40;54.24;94727.44;1654118;85;21105;-48
2022/05/18 00:30:09;;;;;;;4.50;3.15;;;;;;;9.39;52.32;94727.25;1680417;85;21558;-48
2022/05/18 00:32:36;;;;;;;7.15;3.20;;;;;;;9.40;53.05;94730.19;1680471;85;21562;-48
2022/05/18 00:35:05;;;;;;;3.72;3.02;;;;;;;9.39;51.18;94728.63;1680469;85;21589;-49
2022/05/18 00:37:32;;;;;;;4.83;3.22;;;;;;;9.41;51.88;94733.09;1680530;85;21102;-49
2022/05/18 00:39:58;;;;;;;4.60;3.20;;;;;;;9.41;52.23;94737.97;1680224;85;20983;-48
2022/05/18 00:42:26;;;;;;;4.90;2.98;;;;;;;9.35;52.56;94741.11;1680461;85;20958;-47
2022/05/18 00:44:53;;;;;;;4.75;3.30;;;;;;;9.31;51.97;94739.67;1680270;85;21074;-47
2022/05/18 00:47:20;;;;;;;7.55;3.00;;;;;;;9.25;49.67;94743.56;1680491;85;21026;-49
2022/05/18 00:49:51;;;;;;;12.30;3.50;;;;;;;9.22;50.02;94748.56;1680255;85;21765;-48
2022/05/18 00:52:19;;;;;;;4.42;3.30;;;;;;;9.16;50.31;94744.05;1680305;85;21022;-48
2022/05/18 00:54:45;;;;;;;8.63;3.40;;;;;;;9.10;49.34;94741.07;1680310;85;21601;-48
2022/05/18 00:57:19;;;;;;;5.60;3.67;;;;;;;9.08;49.00;94749.59;1632324;85;21026;-48
2022/05/18 00:59:50;;;;;;;5.47;3.10;;;;;;;9.03;50.09;94740.54;1680392;84;21049;-48
2022/05/18 01:02:17;;;;;;;7.58;3.40;;;;;;;8.97;51.46;94747.16;1680448;85;21302;-49
2022/05/18 01:04:44;;;;;;;3.75;3.37;;;;;;;8.86;53.12;94747.89;1680363;85;21085;-48
2022/05/18 01:07:16;;;;;;;9.85;3.70;;;;;;;8.74;54.34;94752.16;1680294;85;21113;-49
2022/05/18 01:09:47;;;;;;;5.83;3.47;;;;;;;8.59;54.50;94748.27;1680437;85;21507;-48
2022/05/18 01:12:17;;;;;;;5.62;3.50;;;;;;;8.46;55.79;94741.95;1680694;85;21042;-49
2022/05/18 01:15:00;;;;;;;3.90;3.45;;;;;;;8.38;55.54;94749.44;1680309;85;21142;-49
2022/05/18 01:17:30;;;;;;;5.15;3.65;;;;;;;8.27;56.60;94751.09;1681182;85;21553;-48
2022/05/18 01:20:00;;;;;;;7.90;3.55;;;;;;;8.11;56.90;94758.55;1681820;85;21048;-48
2022/05/18 01:22:59;;;;;;;7.35;4.17;;;;;;;7.98;58.07;94757.13;1681568;85;21027;-48
2022/05/18 01:26:07;;;;;;;5.15;3.30;;;;;;;7.85;58.32;94749.42;1681961;85;21502;-48
2022/05/18 01:28:38;;;;;;;7.50;3.98;;;;;;;7.71;60.08;94758.59;1681990;85;21780;-48
2022/05/18 01:31:05;;;;;;;5.87;3.70;;;;;;;7.56;56.56;94748.56;1681559;85;21073;-50
2022/05/18 01:33:33;;;;;;;7.25;3.52;;;;;;;7.58;55.30;94745.41;1681775;85;20981;-50
2022/05/18 01:36:00;;;;;;;8.60;3.58;;;;;;;7.61;55.59;94751.39;1681897;85;20999;-49
2022/05/18 01:38:27;;;;;;;3.98;3.58;;;;;;;7.61;56.40;94756.28;1681849;85;21633;-48
2022/05/18 01:40:59;;;;;;;4.72;3.37;;;;;;;7.60;56.92;94760.22;1681868;85;21185;-49
2022/05/18 01:43:48;;;;;;;8.90;3.50;;;;;;;7.58;56.89;94755.77;1681396;85;21038;-48
2022/05/18 01:46:17;;;;;;;5.70;3.67;;;;;;;7.58;57.48;94760.47;1681806;85;21033;-49
2022/05/18 01:48:47;;;;;;;9.85;4.20;;;;;;;7.52;58.59;94751.23;1681788;85;21050;-49
2022/05/18 01:51:19;;;;;;;5.65;3.83;;;;;;;7.47;59.77;94758.56;1656643;85;21078;-49
2022/05/18 01:53:45;;;;;;;5.67;3.40;;;;;;;7.44;60.51;94753.37;1676984;85;21113;-49
2022/05/18 01:56:12;;;;;;;8.03;3.40;;;;;;;7.41;61.16;94756.95;1681849;85;21434;-48
2022/05/18 01:58:39;;;;;;;6.03;3.52;;;;;;;7.39;61.67;94759.94;1681904;85;21056;-48
2022/05/18 02:01:07;;;;;;;4.12;3.67;;;;;;;7.38;61.69;94770.72;1681752;84;21033;-50
2022/05/18 02:03:34;;;;;;;7.92;4.20;;;;;;;7.34;62.35;94766.69;1681919;85;21101;-49
2022/05/18 02:06:00;;;;;;;5.65;3.70;;;;;;;7.31;62.93;94759.33;1681815;85;21150;-48
2022/05/18 02:08:28;;;;;;;11.15;4.10;;;;;;;7.29;63.37;94769.94;1682142;85;20982;-49
2022/05/18 02:10:55;;;;;;;3.67;3.37;;;;;;;7.28;63.86;94773.86;1681776;85;21030;-48
2022/05/18 02:13:21;;;;;;;55.05;19.70;;;;;;;7.23;62.95;94768.91;1681893;85;20994;-49
2022/05/18 02:15:49;;;;;;;49.33;17.90;;;;;;;7.23;63.26;94774.96;1681916;85;21454;-48
2022/05/18 02:18:15;;;;;;;19.15;8.80;;;;;;;7.18;63.66;94777.59;1680281;85;21443;-49
2022/05/18 02:20:42;;;;;;;23.55;6.28;;;;;;;7.11;64.75;94777.76;1680350;85;20982;-48
2022/05/18 02:23:09;;;;;;;13.40;4.75;;;;;;;7.05;65.57;94784.15;1680381;85;20978;-49
2022/05/18 02:25:37;;;;;;;7.15;3.90;;;;;;;6.99;66.69;94787.80;1680639;85;21515;-48
2022/05/18 02:28:04;;;;;;;9.93;4.45;;;;;;;6.91;67.46;94779.59;1680277;85;21081;-48
2022/05/18 02:30:32;;;;;;;5.15;3.70;;;;;;;6.85;67.96;94790.85;1680406;85;21488;-47
2022/05/18 02:32:59;;;;;;;8.85;4.37;;;;;;;6.81;68.35;94781.92;1680033;85;20979;-49
2022/05/18 02:35:26;;;;;;;4.30;4.00;;;;;;;6.73;68.79;94790.86;1680381;85;21502;-49
2022/05/18 02:37:54;;;;;;;5.70;3.85;;;;;;;6.70;69.07;94790.95;1680211;85;21093;-49
2022/05/18 02:40:20;;;;;;;6.28;3.87;;;;;;;6.60;67.31;94791.92;1680395;85;21122;-48
2022/05/18 02:42:47;;;;;;;7.10;3.30;;;;;;;6.51;67.00;94788.99;1680432;85;21124;-49
2022/05/18 02:45:14;;;;;;;8.90;3.80;;;;;;;6.42;66.82;94792.86;1680323;85;21606;-48
2022/05/18 02:47:41;;;;;;;7.97;3.77;;;;;;;6.33;66.75;94800.85;1680387;85;20990;-48
2022/05/18 02:50:10;;;;;;;5.67;3.83;;;;;;;6.28;66.23;94810.30;1677837;85;21002;-48
2022/05/18 02:52:38;;;;;;;12.47;5.33;;;;;;;6.24;64.39;94810.17;1680237;85;21093;-48
2022/05/18 02:57:52;;;;;;;5.00;4.47;;;;;;;6.24;63.23;94820.52;1680475;85;21412;-49
2022/05/18 03:00:19;;;;;;;12.73;5.97;;;;;;;6.22;61.96;94833.03;1679576;85;20989;-48
2022/05/18 03:02:46;;;;;;;74.07;32.13;;;;;;;6.23;62.67;94831.84;1683033;85;21030;-49
2022/05/18 03:05:12;;;;;;;65.97;28.17;;;;;;;6.22;63.05;94838.50;1683284;85;21573;-49
2022/05/18 03:07:39;;;;;;;50.90;24.07;;;;;;;6.16;63.26;94839.56;1683066;85;21166;-48
2022/05/18 03:10:08;;;;;;;33.15;18.48;;;;;;;6.12;63.76;94842.20;1682921;85;21569;-48
2022/05/18 03:12:34;;;;;;;20.17;10.75;;;;;;;6.09;63.94;94849.84;1683070;85;21037;-49
2022/05/18 03:15:01;;;;;;;10.43;6.25;;;;;;;6.05;63.19;94853.23;1683183;85;21438;-48
2022/05/18 03:17:28;;;;;;;9.18;5.47;;;;;;;6.04;61.19;94857.14;1683606;85;21194;-48
2022/05/18 03:19:55;;;;;;;9.93;4.80;;;;;;;6.09;61.16;94864.86;1684094;85;21318;-50
2022/05/18 03:25:08;;;;;;;3.92;3.62;;;;;;;6.18;60.19;94870.57;1684460;85;21033;-49
2022/05/18 03:27:43;;;;;;;10.13;6.10;;;;;;;6.24;58.81;94868.32;1684448;85;21524;-49
2022/05/18 03:30:12;;;;;;;8.28;5.35;;;;;;;6.31;59.92;94875.62;1684296;85;20985;-50
2022/05/18 03:32:40;;;;;;;16.12;8.38;;;;;;;6.32;58.33;94882.63;1684649;85;21109;-49
2022/05/18 03:35:08;;;;;;;12.88;6.58;;;;;;;6.38;59.28;94895.98;1684508;85;21092;-49
2022/05/18 03:37:35;;;;;;;9.45;4.28;;;;;;;6.47;59.08;94888.01;1684763;85;21079;-49
2022/05/18 03:40:03;;;;;;;9.00;3.75;;;;;;;6.60;57.78;94888.38;1684415;85;21026;-49
2022/05/18 03:42:30;;;;;;;3.67;3.30;;;;;;;6.76;56.77;94897.25;1685080;85;20975;-49
2022/05/18 03:44:57;;;;;;;8.15;3.50;;;;;;;7.06;56.68;94908.02;1684424;85;21074;-49
2022/05/18 03:47:24;;;;;;;8.85;3.90;;;;;;;7.67;56.57;94907.89;1684354;85;21116;-49
2022/05/18 03:49:52;;;;;;;4.15;3.08;;;;;;;8.05;54.11;94906.24;1684520;85;21485;-49
2022/05/18 03:52:19;;;;;;;3.52;3.12;;;;;;;8.15;53.67;94916.20;1684575;85;20987;-49
2022/05/18 03:54:46;;;;;;;3.72;3.30;;;;;;;8.21;51.84;94916.49;1684864;85;21573;-49
2022/05/18 03:57:13;;;;;;;7.12;3.08;;;;;;;8.12;51.70;94925.28;1684621;85;21246;-49
2022/05/18 03:59:40;;;;;;;7.92;3.75;;;;;;;8.05;51.26;94930.90;1684755;85;21466;-48
2022/05/18 04:02:06;;;;;;;3.83;3.05;;;;;;;7.97;51.01;94938.33;1688790;85;21089;-49
2022/05/18 04:04:34;;;;;;;5.22;3.47;;;;;;;7.91;51.50;94938.67;1687595;85;21573;-49
2022/05/18 04:07:02;;;;;;;2.83;2.62;;;;;;;7.83;50.46;94939.42;1687482;85;21010;-49
2022/05/18 04:09:28;;;;;;;7.33;2.95;;;;;;;7.76;50.77;94943.70;1687428;85;21253;-50
2022/05/18 04:11:57;;;;;;;7.80;3.33;;;;;;;7.64;50.96;94937.49;1666043;85;21521;-48
2022/05/18 04:14:24;;;;;;;3.90;3.17;;;;;;;7.58;50.76;94936.45;1687305;85;21060;-49
2022/05/18 04:16:50;;;;;;;11.90;3.35;;;;;;;7.52;52.62;94951.81;1687416;85;21038;-50
2022/05/18 04:19:18;;;;;;;8.15;3.22;;;;;;;7.50;52.42;94949.34;1664890;85;21027;-48
2022/05/18 04:21:46;;;;;;;3.08;2.77;;;;;;;7.59;51.36;94951.69;1687768;85;22123;-49
2022/05/18 04:24:12;;;;;;;4.28;3.10;;;;;;;7.67;51.62;94940.75;1687276;85;20985;-49
2022/05/18 04:26:40;;;;;;;4.12;2.90;;;;;;;7.66;50.51;94940.57;1687438;85;20998;-49
2022/05/18 04:29:06;;;;;;;6.08;2.50;;;;;;;7.64;51.06;94947.07;1687286;85;21041;-49
2022/05/18 04:31:33;;;;;;;3.25;3.02;;;;;;;7.63;50.71;94939.27;1687364;85;21021;-48
2022/05/18 04:34:00;;;;;;;4.70;3.05;;;;;;;7.67;51.17;94948.95;1687415;85;21797;-48
2022/05/18 04:36:26;;;;;;;4.85;2.80;;;;;;;7.77;50.81;94943.87;1687373;85;21497;-51
2022/05/18 04:38:53;;;;;;;3.70;2.92;;;;;;;7.88;51.15;94945.77;1687293;85;21077;-49
2022/05/18 04:41:20;;;;;;;2.80;2.60;;;;;;;7.98;50.55;94952.98;1687660;85;20974;-51
2022/05/18 04:43:48;;;;;;;2.80;2.60;;;;;;;8.09;50.30;94950.77;1687344;85;21021;-54
2022/05/18 04:46:15;;;;;;;2.80;2.60;;;;;;;8.17;49.21;94950.00;1687560;85;22791;-47
2022/05/18 04:48:42;;;;;;;3.77;3.25;;;;;;;8.24;48.22;94949.28;1687350;85;20978;-47
2022/05/18 04:51:09;;;;;;;3.15;2.85;;;;;;;8.28;48.58;94941.73;1687294;85;20981;-48
2022/05/18 04:53:36;;;;;;;3.95;2.92;;;;;;;8.27;48.48;94944.30;1687398;85;21044;-49
2022/05/18 04:56:04;;;;;;;3.62;3.17;;;;;;;8.26;49.40;94949.61;1665749;85;21026;-49
2022/05/18 04:58:31;;;;;;;4.22;3.55;;;;;;;8.32;49.47;94942.45;1687445;85;21768;-48
2022/05/18 05:01:02;;;;;;;3.17;2.90;;;;;;;8.40;48.78;94946.55;1684911;84;21007;-50
2022/05/18 05:03:29;;;;;;;5.40;2.60;;;;;;;8.42;48.14;94946.13;1682189;85;21465;-49
2022/05/18 05:05:55;;;;;;;7.37;5.20;;;;;;;8.39;48.24;94942.27;1681962;85;21034;-49
2022/05/18 05:09:31;;;;;;;4.30;3.45;;;;;;;8.44;47.10;94945.86;1682015;85;20998;-53
2022/05/18 05:11:57;;;;;;;5.47;3.08;;;;;;;8.41;47.88;94937.12;1681919;85;22093;-49
2022/05/18 05:14:24;;;;;;;3.87;2.87;;;;;;;8.57;48.65;94948.68;1681820;85;21046;-49
2022/05/18 05:16:51;;;;;;;5.22;2.77;;;;;;;8.68;47.50;94954.09;1682187;85;21450;-49
2022/05/18 05:19:18;;;;;;;4.17;2.75;;;;;;;8.79;45.91;94962.06;1681927;85;21089;-50
2022/05/18 05:21:46;;;;;;;4.83;3.52;;;;;;;8.90;44.92;94961.34;1682030;85;21042;-48
2022/05/18 05:24:14;;;;;;;4.75;2.67;;;;;;;8.96;45.22;94956.89;1681974;85;21170;-48
2022/05/18 05:26:43;;;;;;;5.55;3.65;;;;;;;9.02;45.17;94962.61;1681985;84;20978;-49
2022/05/18 05:29:10;;;;;;;8.35;3.50;;;;;;;9.09;45.88;94967.92;1681829;84;20974;-49
2022/05/18 05:31:37;;;;;;;9.05;4.28;;;;;;;9.19;46.47;94965.48;1679458;85;21192;-48
2022/05/18 05:34:04;;;;;;;6.90;3.10;;;;;;;9.25;44.76;94967.28;1681826;85;21026;-49
2022/05/18 05:36:31;;;;;;;9.00;3.00;;;;;;;9.20;45.69;94971.15;1682318;85;21170;-48
2022/05/18 05:38:58;;;;;;;4.60;2.37;;;;;;;9.23;46.93;95001.87;1681833;85;21022;-49
2022/05/18 05:41:26;;;;;;;5.40;2.90;;;;;;;9.25;45.39;94989.86;1681928;84;21041;-50
2022/05/18 05:43:55;;;;;;;3.50;3.20;;;;;;;9.18;46.12;94988.66;1690153;84;21039;-49
2022/05/18 05:46:23;;;;;;;5.58;2.70;;;;;;;9.19;46.09;94991.56;1703787;83;21156;-49
2022/05/18 05:48:50;;;;;;;4.40;3.45;;;;;;;9.20;45.80;95001.34;1681192;84;21273;-49
2022/05/18 05:51:19;;;;;;;4.85;3.42;;;;;;;9.16;46.65;95003.41;1654149;84;21041;-49
2022/05/18 05:53:46;;;;;;;7.03;3.20;;;;;;;9.17;45.91;95009.86;1654905;85;21112;-51
2022/05/18 05:56:15;;;;;;;8.23;3.85;;;;;;;9.22;45.25;95000.33;1680606;85;21046;-49
2022/05/18 05:58:43;;;;;;;7.72;3.12;;;;;;;9.24;46.37;95004.79;1680137;84;21084;-51
2022/05/18 06:01:12;;;;;;;3.12;2.80;;;;;;;9.25;46.38;95007.70;1683195;85;21061;-49
2022/05/18 06:03:41;;;;;;;17.70;3.10;;;;;;;9.19;46.81;95023.92;1679835;83;21058;-48
2022/05/18 06:06:10;;;;;;;6.42;3.45;;;;;;;9.09;46.87;95017.33;1682096;83;21080;-56
2022/05/18 06:08:38;;;;;;;4.95;3.17;;;;;;;8.99;46.56;95021.88;1662007;83;21072;-56
2022/05/18 06:11:07;;;;;;;3.67;2.95;;;;;;;9.02;46.33;95022.39;1675557;83;21056;-52
2022/05/18 06:13:34;;;;;;;5.00;3.02;;;;;;;9.10;46.95;95023.74;1683015;83;21137;-53
2022/05/18 06:16:03;;;;;;;4.83;2.98;;;;;;;9.20;47.30;95037.02;1682748;83;21092;-49
2022/05/18 06:18:30;;;;;;;4.85;3.40;;;;;;;9.30;46.84;95027.76;1679874;83;21028;-53
2022/05/18 06:20:57;;;;;;;4.03;3.30;;;;;;;9.34;46.98;95032.55;1675751;83;21132;-53
2022/05/18 06:23:24;;;;;;;3.92;3.62;;;;;;;9.45;48.13;95035.80;1685919;83;21120;-52
2022/05/18 06:25:52;;;;;;;2.95;2.60;;;;;;;9.60;48.21;95057.57;1685529;83;21299;-52
2022/05/18 06:28:19;;;;;;;7.22;2.50;;;;;;;9.63;47.42;95045.71;1692617;83;21097;-51
2022/05/18 06:30:46;;;;;;;5.40;2.35;;;;;;;9.59;47.36;95072.51;1685808;83;21416;-54
2022/05/18 06:33:13;;;;;;;3.62;2.15;;;;;;;9.56;46.92;95062.36;1682364;83;21053;-52
2022/05/18 06:35:40;;;;;;;2.87;2.70;;;;;;;9.51;46.10;95058.78;1679743;83;20969;-51
2022/05/18 06:38:14;;;;;;;5.40;2.92;;;;;;;9.44;45.80;95064.47;1684617;83;21242;-52
2022/05/18 06:43:29;;;;;;;2.42;2.30;;;;;;;9.33;45.91;95074.35;1664583;83;21053;-52
2022/05/18 06:45:56;;;;;;;5.55;2.58;;;;;;;9.38;45.70;95064.21;1673226;83;21086;-56
2022/05/18 06:48:24;;;;;;;2.50;2.40;;;;;;;9.42;46.67;95072.37;1662921;85;21073;-50
2022/05/18 06:50:51;;;;;;;2.95;2.65;;;;;;;9.50;46.37;95076.45;1681819;83;21270;-52
2022/05/18 06:53:20;;;;;;;2.58;2.37;;;;;;;9.53;46.93;95084.61;1668523;85;20992;-51
2022/05/18 06:55:49;;;;;;;3.55;2.67;;;;;;;9.65;45.73;95059.78;1684618;83;21037;-50
2022/05/18 06:58:25;;;;;;;5.90;3.25;;;;;;;9.74;46.43;95107.41;1681409;83;21126;-57
2022/05/18 07:00:53;;;;;;;4.10;2.52;;;;;;;9.82;44.63;95079.14;1685303;85;21049;-53
2022/05/18 07:03:20;;;;;;;5.15;2.30;;;;;;;9.82;44.94;95083.26;1680497;83;22252;-53
2022/05/18 07:05:50;;;;;;;2.60;2.40;;;;;;;9.88;44.77;95076.80;1680499;83;21540;-51
2022/05/18 07:08:18;;;;;;;3.10;2.50;;;;;;;9.92;44.19;95099.45;1682679;83;21037;-52
2022/05/18 07:10:45;;;;;;;4.05;2.20;;;;;;;9.94;43.84;95091.55;1682511;85;21093;-48
2022/05/18 07:13:16;;;;;;;3.90;2.40;;;;;;;9.99;43.42;95098.50;1678424;83;21010;-52
2022/05/18 07:15:41;;;;;;;4.78;3.12;;;;;;;10.03;43.68;95093.70;1684805;83;21296;-52
2022/05/18 07:18:08;;;;;;;2.95;2.47;;;;;;;10.09;44.63;95097.45;1684422;83;21040;-50
2022/05/18 07:20:36;;;;;;;9.35;2.72;;;;;;;10.18;44.17;95108.59;1684520;83;21158;-50
2022/05/18 07:23:02;;;;;;;4.12;1.90;;;;;;;10.25;43.14;95116.63;1657933;85;21176;-51
2022/05/18 07:25:29;;;;;;;7.30;3.10;;;;;;;10.23;40.81;95123.97;1683288;83;21029;-51
2022/05/18 07:27:56;;;;;;;5.50;2.45;;;;;;;10.23;42.87;95125.34;1674336;83;21209;-50
2022/05/18 07:30:23;;;;;;;4.67;2.98;;;;;;;10.34;42.84;95126.41;1684936;83;21080;-52
2022/05/18 07:32:50;;;;;;;3.98;2.08;;;;;;;10.41;42.08;95119.33;1684149;83;21262;-51
2022/05/18 07:35:16;;;;;;;2.95;2.20;;;;;;;10.41;42.13;95113.82;1682125;83;21532;-50
2022/05/18 07:37:43;;;;;;;15.23;4.40;;;;;;;10.41;42.25;95120.70;1683507;83;21145;-50
2022/05/18 07:40:11;;;;;;;2.20;2.10;;;;;;;10.54;41.89;95135.26;1681153;83;21816;-49
2022/05/18 07:42:38;;;;;;;2.80;1.98;;;;;;;10.74;42.74;95127.75;1681063;83;22195;-56
2022/05/18 07:45:08;;;;;;;4.22;2.02;;;;;;;10.98;41.36;95125.46;1684346;83;21112;-50
2022/05/18 07:47:34;;;;;;;1.80;1.70;;;;;;;11.10;41.17;95126.83;1685176;83;21045;-58
2022/05/18 07:50:04;;;;;;;5.33;2.20;;;;;;;11.13;39.43;95139.72;1686209;83;20990;-57
2022/05/18 07:52:31;;;;;;;3.60;1.90;;;;;;;11.14;39.50;95148.14;1684817;83;21264;-54
2022/05/18 07:54:57;;;;;;;1.87;1.70;;;;;;;11.16;39.42;95138.08;1663190;85;21080;-53
2022/05/18 07:57:24;;;;;;;3.27;1.90;;;;;;;11.24;40.04;95135.25;1688875;83;21262;-56
2022/05/18 07:59:59;;;;;;;3.90;2.65;;;;;;;11.33;39.61;95146.39;1683743;83;21021;-52
2022/05/18 08:02:26;;;;;;;;;;;;;;;11.37;40.08;95173.97;1685765;83;21060;-57
2022/05/18 08:04:53;;;;;;;6.08;1.80;;;;;;;11.43;37.92;95163.95;1680193;83;21278;-52
2022/05/18 08:07:19;;;;;;;7.45;2.00;;;;;;;11.37;38.51;95156.06;1679385;84;21065;-57
2022/05/18 08:15:24;;;;;;;2.35;1.80;;;;;;;11.37;39.76;95160.19;1674383;83;21097;-55
2022/05/18 08:17:51;;;;;;;7.30;2.30;;;;;;;11.42;38.66;95154.74;1681965;83;21219;-53
2022/05/18 08:20:21;;;;;;;2.17;1.72;;;;;;;11.45;38.71;95143.62;1659958;85;38607;-56
2022/05/18 08:22:48;;;;;;;4.87;1.92;;;;;;;11.49;38.12;95122.22;1678739;83;21068;-54
2022/05/18 08:25:17;;;;;;;2.08;1.70;;;;;;;11.46;37.12;95157.55;1665275;85;21045;-54
2022/05/18 08:27:47;;;;;;;2.08;1.72;;;;;;;11.42;38.39;95170.67;1680510;83;21109;-54
2022/05/18 08:30:19;;;;;;;2.35;1.80;;;;;;;11.49;38.00;95172.44;1681725;83;21142;-52
2022/05/18 08:32:47;;;;;;;4.53;1.77;;;;;;;11.54;37.95;95162.98;1678850;84;21097;-59
2022/05/18 08:35:14;;;;;;;1.92;1.72;;;;;;;11.53;38.89;95163.45;1680597;85;21103;-53
2022/05/18 08:37:44;;;;;;;3.77;1.77;;;;;;;11.56;37.77;95156.45;1682836;83;21096;-53
2022/05/18 08:40:49;;;;;;;4.30;1.62;;;;;;;11.58;38.00;95147.75;1677523;83;21105;-52
2022/05/18 08:43:30;;;;;;;1.60;1.50;;;;;;;11.62;40.64;95164.34;1685529;84;21116;-53
2022/05/18 08:46:43;;;;;;;2.85;1.70;;;;;;;11.74;38.74;95132.45;1678155;83;21057;-57
2022/05/18 08:49:35;;;;;;;2.25;1.77;;;;;;;11.84;38.26;95168.53;1665892;83;21521;-54
2022/05/18 08:52:22;;;;;;;2.85;1.85;;;;;;;12.01;37.37;95170.70;1661324;83;21041;-53
2022/05/18 08:55:39;;;;;;;2.95;1.80;;;;;;;12.05;39.10;95182.38;1653659;83;21104;-54
2022/05/18 08:58:27;;;;;;;3.50;2.08;;;;;;;12.13;38.79;95188.43;1681532;83;21647;-52
2022/05/18 09:00:58;;;;;;;4.35;2.20;;;;;;;12.22;38.88;95173.33;1676767;83;21508;-51
2022/05/18 09:03:46;;;;;;;4.30;1.65;;;;;;;12.29;37.85;95184.89;1678012;83;21092;-54
2022/05/18 09:06:47;;;;;;;9.83;1.87;;;;;;;12.43;37.56;95189.16;1696602;84;21000;-53
2022/05/18 09:12:21;;;;;;;5.20;2.00;;;;;;;12.36;38.24;95190.17;1670928;84;21259;-53
2022/05/18 09:14:47;;;;;;;2.92;1.70;;;;;;;12.44;38.12;95180.41;1663642;84;21108;-54
2022/05/18 09:17:41;;;;;;;3.27;1.57;;;;;;;12.49;37.71;95201.91;1675548;84;21099;-55
2022/05/18 09:20:39;;;;;;;2.37;1.60;;;;;;;12.50;36.17;95204.86;1679847;85;21037;-52
2022/05/18 09:23:33;;;;;;;1.60;1.50;;;;;;;12.51;36.70;95187.67;1679758;85;21077;-55
2022/05/18 09:26:11;;;;;;;2.92;1.65;;;;;;;12.56;38.44;95197.53;1668797;83;21270;-54
2022/05/18 09:29:11;;;;;;;3.05;1.57;;;;;;;12.79;37.00;95192.94;1675719;84;21589;-53
2022/05/18 09:32:03;;;;;;;3.10;1.60;;;;;;;12.94;36.56;95192.61;1678664;84;21037;-55
2022/05/18 09:35:12;;;;;;;2.55;1.72;;;;;;;13.03;35.21;95199.55;1677630;84;21104;-53
2022/05/18 09:37:53;;;;;;;2.42;1.70;;;;;;;13.03;36.16;95202.32;1668056;84;22386;-55
2022/05/18 09:40:27;;;;;;;1.77;1.67;;;;;;;13.16;38.24;95193.34;1649720;84;21299;-55
2022/05/18 09:43:15;;;;;;;4.87;2.02;;;;;;;13.42;37.82;95196.10;1681504;84;21509;-52
2022/05/18 09:45:44;;;;;;;1.65;1.55;;;;;;;13.56;36.61;95171.42;1690875;84;21109;-51
2022/05/18 09:48:26;;;;;;;3.58;1.60;;;;;;;13.72;36.87;95189.75;1677664;84;21120;-53
2022/05/18 09:50:57;;;;;;;2.98;1.52;;;;;;;13.82;36.66;95204.52;1670025;84;21170;-53
2022/05/18 09:53:23;;;;;;;1.60;1.50;;;;;;;13.86;36.47;95189.18;1671085;84;21204;-56
2022/05/18 09:55:50;;;;;;;5.25;2.05;;;;;;;13.85;38.03;95189.77;1673285;85;21064;-54
2022/05/18 09:58:24;;;;;;;7.60;1.62;;;;;;;13.89;37.85;95193.79;1666486;84;21107;-55
2022/05/18 10:07:27;;;;;;;2.17;1.67;;;;;;;13.95;36.68;95191.95;1677924;84;21437;-55
2022/05/18 10:08:57;;;;;;;2.37;1.42;;;;;;;14.00;36.11;95196.91;1665592;83;21121;-56
2022/05/18 10:11:33;;;;;;;7.72;1.80;;;;;;;14.15;35.40;95182.64;1637836;85;21033;-54
2022/05/18 10:14:09;;;;;;;7.53;1.90;;;;;;;14.25;35.02;95200.81;1682480;83;21076;-52
2022/05/18 10:16:48;;;;;;;5.08;2.22;;;;;;;14.33;36.29;95204.20;1658981;85;20965;-53
2022/05/18 10:19:23;;;;;;;3.95;1.57;;;;;;;14.47;36.73;95187.75;1684488;83;21177;-55
2022/05/18 10:21:57;;;;;;;5.85;2.52;;;;;;;14.69;38.05;95182.06;1684234;83;21612;-54
2022/05/18 10:24:39;;;;;;;2.15;1.95;;;;;;;15.01;35.95;95196.02;1687667;83;21103;-55
2022/05/18 10:27:25;;;;;;;1.30;1.20;;;;;;;15.41;36.57;95197.98;1684242;83;21086;-55
2022/05/18 10:30:08;;;;;;;1.45;1.35;;;;;;;15.74;35.30;95190.42;1679386;83;21656;-54
2022/05/18 10:32:38;;;;;;;7.55;1.52;;;;;;;15.82;34.04;95180.54;1684979;83;21256;-53
2022/05/18 10:35:07;;;;;;;2.47;1.52;;;;;;;15.65;36.64;95187.70;1696128;83;21548;-54
2022/05/18 10:37:36;;;;;;;3.83;1.50;;;;;;;15.77;35.16;95172.84;1685456;83;21026;-54
2022/05/18 10:40:11;;;;;;;5.00;1.50;;;;;;;15.67;34.96;95167.80;1673567;85;21033;-56
2022/05/18 10:42:51;;;;;;;5.25;1.30;;;;;;;15.93;35.71;95173.84;1690873;83;21061;-54
2022/05/18 10:45:34;;;;;;;2.20;1.20;;;;;;;16.22;33.98;95162.88;1679504;83;21270;-55
2022/05/18 10:48:17;;;;;;;3.85;1.75;;;;;;;16.19;34.03;95161.05;1685401;83;21026;-54
2022/05/18 10:50:44;;;;;;;3.47;1.50;;;;;;;16.68;33.94;95154.34;1697222;83;21283;-54
2022/05/18 10:53:19;;;;;;;5.00;1.60;;;;;;;16.75;33.75;95164.47;1664735;85;21044;-54
2022/05/18 10:55:57;;;;;;;4.12;1.40;;;;;;;16.49;33.05;95168.24;1685211;83;21042;-54
2022/05/18 10:58:27;;;;;;;3.55;1.57;;;;;;;16.81;33.85;95165.97;1684691;83;21174;-54
2022/05/18 11:01:05;;;;;;;2.25;1.62;;;;;;;17.25;31.24;95162.61;1691779;83;20984;-56
2022/05/18 11:03:37;;;;;;;3.92;1.10;;;;;;;17.66;31.85;95160.16;1683269;83;21121;-57
2022/05/18 11:06:15;;;;;;;7.78;1.57;;;;;;;18.13;31.15;95152.98;1683812;83;21076;-57
2022/05/18 11:08:43;;;;;;;2.98;1.52;;;;;;;18.53;30.33;95164.20;1684947;83;20978;-55
2022/05/18 11:11:36;;;;;;;2.25;1.20;;;;;;;18.75;28.80;95153.30;1683989;83;21153;-55
2022/05/18 11:14:21;;;;;;;4.58;1.80;;;;;;;18.83;28.56;95164.80;1663148;85;21096;-56
2022/05/18 11:17:23;;;;;;;1.32;1.07;;;;;;;19.08;28.54;95156.45;1680349;83;21537;-55
2022/05/18 11:20:12;;;;;;;1.50;1.22;;;;;;;19.18;30.05;95162.02;1657641;83;21608;-56
2022/05/18 11:22:53;;;;;;;2.17;1.15;;;;;;;19.56;29.01;95161.59;1685055;83;21062;-56
2022/05/18 11:25:57;;;;;;;4.30;1.50;;;;;;;19.90;28.69;95155.01;1684785;83;21138;-55
2022/05/18 11:28:42;;;;;;;6.67;1.50;;;;;;;20.23;27.68;95162.23;1685832;83;21060;-55
2022/05/18 11:31:52;;;;;;;2.00;1.00;;;;;;;20.42;26.03;95166.93;1675051;83;21045;-54
2022/05/18 11:34:46;;;;;;;2.22;0.75;;;;;;;20.41;25.98;95171.61;1710513;82;21140;-53
2022/05/18 11:37:33;;;;;;;3.45;1.10;;;;;;;20.57;26.87;95163.30;1699575;82;21503;-54
2022/05/18 11:40:29;;;;;;;2.50;1.07;;;;;;;20.97;26.00;95140.60;1712011;83;21880;-52
2022/05/18 11:43:30;;;;;;;5.15;1.00;;;;;;;21.23;25.61;95159.34;1676757;85;21132;-55
2022/05/18 11:45:42;;;;;;;4.00;0.90;;;;;;;21.40;25.88;95146.76;1674103;83;21045;-57
2022/05/18 11:48:30;;;;;;;3.50;0.90;;;;;;;21.45;24.09;95157.97;1684579;83;28840;-55
2022/05/18 11:51:14;;;;;;;4.83;0.90;;;;;;;21.56;24.13;95154.41;1693572;83;21080;-55
2022/05/18 11:53:56;;;;;;;1.90;0.70;;;;;;;21.74;25.07;95155.33;1688636;83;21254;-53
2022/05/18 11:56:49;;;;;;;2.45;0.90;;;;;;;21.79;23.72;95154.56;1680604;83;21707;-58
2022/05/18 11:59:51;;;;;;;1.62;0.75;;;;;;;21.60;24.66;95156.31;1659053;85;21213;-55
2022/05/18 12:02:23;;;;;;;2.15;0.90;;;;;;;21.28;25.20;95166.23;1681654;83;21076;-55
2022/05/18 12:05:17;;;;;;;4.42;1.02;;;;;;;21.07;26.02;95182.45;1687271;83;21037;-56
2022/05/18 12:08:27;;;;;;;0.85;0.60;;;;;;;21.26;25.50;95172.33;1689895;83;21144;-53
2022/05/18 12:11:21;;;;;;;12.30;1.30;;;;;;;21.77;25.31;95161.31;1684635;83;21088;-54
2022/05/18 12:14:17;;;;;;;4.30;1.00;;;;;;;22.13;24.10;95181.41;1680110;83;21044;-58
2022/05/18 12:17:01;;;;;;;2.02;0.80;;;;;;;21.90;22.97;95166.55;1688475;83;21031;-55
2022/05/18 12:19:54;;;;;;;3.60;0.77;;;;;;;21.73;23.93;95170.61;1677882;83;21541;-54
2022/05/18 12:22:30;;;;;;;4.50;0.85;;;;;;;21.92;25.15;95202.45;1691547;83;21824;-55
2022/05/18 12:24:57;;;;;;;1.45;0.70;;;;;;;22.57;23.90;95184.80;1683795;83;21495;-55